Time;durP1;ratioP1;P1;durP2;ratioP2;P2;SDS_P1;SDS_P2;PMS_P1;PMS_P2;Temp;Humidity;BMP_temperature;BMP_pressure;BME280_temperature;BME280_humidity;BME280_pressure;Samples;Min_cycle;Max_cycle;Signal;HPM_P1;HPM_P2
2023/03/19 00:01:54;;;;;;;14.13;9.70;;;10.10;99.90;;;;;;5071477;28;20052;-81
2023/03/19 00:04:40;;;;;;;12.48;7.85;;;10.10;99.90;;;;;;5057449;28;20117;-81
2023/03/19 00:07:26;;;;;;;13.23;7.72;;;10.10;99.90;;;;;;5073805;28;20053;-83
2023/03/19 00:10:13;;;;;;;11.65;7.38;;;10.10;99.90;;;;;;5056535;28;20049;-82
2023/03/19 00:12:59;;;;;;;12.40;7.63;;;10.10;99.90;;;;;;5073529;28;20056;-82
2023/03/19 00:15:46;;;;;;;12.80;7.90;;;10.10;99.90;;;;;;5075902;28;20086;-81
2023/03/19 00:18:32;;;;;;;11.63;7.35;;;10.10;99.90;;;;;;5058707;28;20049;-81
2023/03/19 00:21:18;;;;;;;10.55;7.03;;;10.10;99.90;;;;;;5071923;28;20404;-80
2023/03/19 00:24:04;;;;;;;10.02;6.85;;;10.10;99.90;;;;;;5071573;28;20044;-81
2023/03/19 00:26:51;;;;;;;13.77;6.68;;;10.10;99.90;;;;;;5056473;28;20143;-80
2023/03/19 00:29:37;;;;;;;11.63;6.82;;;10.10;99.90;;;;;;5072735;28;20048;-80
2023/03/19 00:32:23;;;;;;;10.52;7.15;;;10.10;99.90;;;;;;5053674;28;20052;-81
2023/03/19 00:35:09;;;;;;;9.85;7.20;;;10.10;99.90;;;;;;5069960;28;20490;-80
2023/03/19 00:37:55;;;;;;;13.85;7.20;;;10.10;99.90;;;;;;5073246;28;20053;-80
2023/03/19 00:40:41;;;;;;;12.55;7.13;;;10.10;99.90;;;;;;5072102;28;20057;-80
2023/03/19 00:43:27;;;;;;;10.27;7.18;;;10.10;99.90;;;;;;5072752;28;20155;-80
2023/03/19 00:46:13;;;;;;;12.02;7.25;;;10.10;99.90;;;;;;5072339;28;20048;-81
2023/03/19 00:49:00;;;;;;;10.23;6.55;;;10.00;99.90;;;;;;5071586;28;20052;-81
2023/03/19 00:51:46;;;;;;;12.55;8.15;;;10.10;99.90;;;;;;5070760;28;20548;-81
2023/03/19 00:54:33;;;;;;;11.00;7.03;;;10.10;99.90;;;;;;5075617;28;20103;-82
2023/03/19 00:57:19;;;;;;;16.73;8.70;;;10.10;99.90;;;;;;5073346;28;20496;-82
2023/03/19 01:00:07;;;;;;;15.20;8.70;;;10.10;99.90;;;;;;5070285;28;20052;-81
2023/03/19 01:02:53;;;;;;;14.15;8.38;;;10.10;99.90;;;;;;5070040;28;20504;-83
2023/03/19 01:05:40;;;;;;;14.40;7.80;;;10.10;99.90;;;;;;5071787;28;20060;-81
2023/03/19 01:08:26;;;;;;;14.68;8.25;;;10.10;99.90;;;;;;5071743;28;20405;-84
2023/03/19 01:11:14;;;;;;;13.75;8.10;;;10.10;99.90;;;;;;5072346;28;20056;-83
2023/03/19 01:14:00;;;;;;;12.25;7.85;;;10.10;99.90;;;;;;5061558;28;20157;-83
2023/03/19 01:16:46;;;;;;;12.13;7.88;;;10.10;99.90;;;;;;5055379;28;20056;-81
2023/03/19 01:19:32;;;;;;;11.20;7.50;;;10.10;99.90;;;;;;5052637;28;20489;-82
2023/03/19 01:22:18;;;;;;;11.60;7.82;;;10.10;99.90;;;;;;5060395;28;20045;-82
2023/03/19 01:25:05;;;;;;;12.65;7.80;;;10.10;99.90;;;;;;5063216;28;20040;-82
2023/03/19 01:27:51;;;;;;;12.00;8.15;;;10.20;99.90;;;;;;5063791;28;20114;-80
2023/03/19 01:34:39;;;;;;;13.60;8.65;;;10.10;99.90;;;;;;5076059;28;20039;-80
2023/03/19 01:37:26;;;;;;;12.75;8.43;;;10.10;99.90;;;;;;5075402;28;20098;-84
2023/03/19 01:40:13;;;;;;;12.55;8.02;;;10.10;99.90;;;;;;5072231;28;20040;-85
2023/03/19 01:43:19;;;;;;;16.95;7.93;;;10.10;99.90;;;;;;5057759;28;20455;-83
2023/03/19 01:46:14;;;;;;;;;;;10.10;99.90;;;;;;5072628;28;20115;-81
2023/03/19 01:49:05;;;;;;;9.63;7.20;;;10.10;99.90;;;;;;5054033;28;19925;-85
2023/03/19 01:51:52;;;;;;;10.65;6.50;;;10.10;99.90;;;;;;5074627;28;20052;-81
2023/03/19 01:54:39;;;;;;;13.77;6.97;;;10.00;99.90;;;;;;5051801;28;20056;-81
2023/03/19 01:57:27;;;;;;;11.10;7.28;;;10.00;99.90;;;;;;5038722;28;20052;-83
2023/03/19 02:00:14;;;;;;;12.98;6.72;;;10.00;99.90;;;;;;5070175;28;20102;-82
2023/03/19 02:03:01;;;;;;;11.68;7.63;;;10.00;99.90;;;;;;5069365;28;20571;-81
2023/03/19 02:05:50;;;;;;;11.10;6.97;;;10.10;99.90;;;;;;5054882;28;20489;-82
2023/03/19 02:08:38;;;;;;;14.10;7.93;;;10.00;99.90;;;;;;5070873;28;20108;-83
2023/03/19 02:11:25;;;;;;;11.48;7.50;;;10.10;99.90;;;;;;5078861;28;20087;-84
2023/03/19 02:14:12;;;;;;;13.88;7.97;;;10.10;99.90;;;;;;5073258;28;20040;-82
2023/03/19 02:16:58;;;;;;;10.30;6.68;;;10.00;99.90;;;;;;5069967;28;20057;-83
2023/03/19 02:20:04;;;;;;;10.60;6.47;;;10.00;99.90;;;;;;5069494;28;20044;-84
2023/03/19 02:23:12;;;;;;;14.05;6.93;;;10.00;99.90;;;;;;5041275;28;20090;-84
2023/03/19 02:26:12;;;;;;;17.48;8.52;;;10.00;99.90;;;;;;5071232;28;20385;-83
2023/03/19 02:28:58;;;;;;;16.52;8.38;;;10.00;99.90;;;;;;5055234;28;20078;-83
2023/03/19 02:31:45;;;;;;;11.57;7.95;;;10.00;99.90;;;;;;5069918;28;20045;-83
2023/03/19 02:34:38;;;;;;;12.90;7.63;;;9.90;99.90;;;;;;5076071;28;20080;-84
2023/03/19 02:37:30;;;;;;;13.32;7.78;;;9.90;99.90;;;;;;5071170;28;20052;-85
2023/03/19 02:40:22;;;;;;;13.50;7.15;;;9.90;99.90;;;;;;5073733;28;20044;-84
2023/03/19 02:43:08;;;;;;;12.98;7.10;;;9.90;99.90;;;;;;5070860;28;20090;-84
2023/03/19 02:45:54;;;;;;;10.73;6.30;;;9.90;99.90;;;;;;5069409;28;20048;-83
2023/03/19 02:48:40;;;;;;;10.90;6.88;;;9.90;99.90;;;;;;5069291;28;20087;-83
2023/03/19 02:51:26;;;;;;;11.43;7.07;;;9.80;99.90;;;;;;5072128;28;20090;-83
2023/03/19 02:54:13;;;;;;;13.10;7.00;;;9.80;99.90;;;;;;5069394;28;20044;-82
2023/03/19 02:56:59;;;;;;;11.40;6.93;;;9.90;99.90;;;;;;5068927;28;20508;-82
2023/03/19 02:59:46;;;;;;;13.07;7.50;;;9.90;99.90;;;;;;5069078;28;20052;-81
2023/03/19 03:02:32;;;;;;;11.73;6.85;;;9.90;99.90;;;;;;5069501;28;20519;-82
2023/03/19 03:05:18;;;;;;;11.18;7.18;;;9.80;99.90;;;;;;5067747;28;20051;-84
2023/03/19 03:08:04;;;;;;;10.68;7.75;;;9.90;99.90;;;;;;5071806;28;20041;-83
2023/03/19 03:10:50;;;;;;;12.98;7.82;;;9.90;99.90;;;;;;5059503;28;20061;-85
2023/03/19 03:13:36;;;;;;;14.85;8.70;;;9.90;99.90;;;;;;5079635;28;20139;-85
2023/03/19 03:16:23;;;;;;;14.65;8.55;;;9.90;99.90;;;;;;5072290;28;20064;-86
2023/03/19 03:19:09;;;;;;;17.92;9.45;;;9.90;99.90;;;;;;5078906;28;20044;-86
2023/03/19 03:21:57;;;;;;;15.52;9.55;;;9.90;99.90;;;;;;5057258;28;20056;-83
2023/03/19 03:24:43;;;;;;;15.98;8.35;;;9.90;99.90;;;;;;5058465;28;20052;-83
2023/03/19 03:27:30;;;;;;;18.85;10.25;;;9.90;99.90;;;;;;5072907;28;20102;-83
2023/03/19 03:30:16;;;;;;;17.83;10.30;;;9.90;99.90;;;;;;5056559;28;20135;-83
2023/03/19 03:33:02;;;;;;;16.92;9.57;;;9.90;99.90;;;;;;5060211;28;20052;-83
2023/03/19 03:35:48;;;;;;;20.17;11.05;;;9.90;99.90;;;;;;5073396;28;20045;-82
2023/03/19 03:38:34;;;;;;;23.08;12.25;;;9.90;99.90;;;;;;5056296;28;20556;-83
2023/03/19 03:41:20;;;;;;;24.00;12.48;;;10.00;99.90;;;;;;5072645;28;20050;-82
2023/03/19 03:44:07;;;;;;;21.52;11.88;;;10.00;99.90;;;;;;5055173;28;20550;-82
2023/03/19 03:46:53;;;;;;;25.77;13.23;;;10.00;99.90;;;;;;5041356;28;20663;-83
2023/03/19 03:49:40;;;;;;;23.90;13.38;;;10.00;99.90;;;;;;5056709;28;20056;-82
2023/03/19 03:52:30;;;;;;;23.20;12.25;;;10.00;99.90;;;;;;5047959;28;20056;-83
2023/03/19 03:55:16;;;;;;;21.58;12.50;;;10.00;99.90;;;;;;5027865;28;20045;-84
2023/03/19 03:58:03;;;;;;;23.42;12.23;;;10.00;99.90;;;;;;5073168;28;20135;-83
2023/03/19 04:00:49;;;;;;;25.45;12.70;;;10.00;99.90;;;;;;5056633;28;20040;-84
2023/03/19 04:03:35;;;;;;;23.90;12.48;;;10.00;99.90;;;;;;5054514;28;20060;-84
2023/03/19 04:06:23;;;;;;;26.90;13.05;;;10.00;99.90;;;;;;5074579;28;20041;-82
2023/03/19 04:09:09;;;;;;;22.42;12.57;;;10.00;99.90;;;;;;5081527;28;20044;-82
2023/03/19 04:11:55;;;;;;;26.10;13.50;;;10.00;99.90;;;;;;5073361;28;20155;-82
2023/03/19 04:14:41;;;;;;;19.63;11.80;;;10.00;99.90;;;;;;5072710;28;20048;-85
2023/03/19 04:17:28;;;;;;;23.38;12.32;;;9.90;99.90;;;;;;5073022;28;20143;-85
2023/03/19 04:20:17;;;;;;;22.30;11.43;;;10.00;99.90;;;;;;5072791;28;20045;-84
2023/03/19 04:23:03;;;;;;;16.65;10.52;;;10.00;99.90;;;;;;5072121;28;20527;-84
2023/03/19 04:25:49;;;;;;;14.65;9.65;;;9.90;99.90;;;;;;5072601;28;20047;-85
2023/03/19 04:28:36;;;;;;;15.80;10.25;;;9.90;99.90;;;;;;5071228;28;20044;-84
2023/03/19 04:31:22;;;;;;;14.38;8.27;;;9.90;99.90;;;;;;5075465;28;20057;-84
2023/03/19 04:34:08;;;;;;;14.95;8.60;;;9.80;99.90;;;;;;5073235;28;20508;-84
2023/03/19 04:36:55;;;;;;;13.73;8.00;;;9.80;99.90;;;;;;5071794;28;20044;-85
2023/03/19 04:39:41;;;;;;;12.75;7.45;;;9.80;99.90;;;;;;5071891;28;20048;-84
2023/03/19 04:42:27;;;;;;;11.70;7.75;;;9.70;99.90;;;;;;5072413;28;20045;-83
2023/03/19 04:45:13;;;;;;;13.77;7.30;;;9.70;99.90;;;;;;5052578;28;20056;-86
2023/03/19 04:48:00;;;;;;;11.45;7.07;;;9.60;99.90;;;;;;5071798;28;20064;-85
2023/03/19 04:50:47;;;;;;;16.45;8.45;;;9.50;99.90;;;;;;5070452;28;20500;-83
2023/03/19 04:53:33;;;;;;;17.23;8.43;;;9.40;99.90;;;;;;5045269;28;20055;-82
2023/03/19 04:56:20;;;;;;;12.20;7.30;;;9.40;99.90;;;;;;5070872;28;20063;-83
2023/03/19 04:59:07;;;;;;;10.93;7.63;;;9.30;99.90;;;;;;5045923;28;20055;-84
2023/03/19 05:01:53;;;;;;;8.85;5.82;;;9.30;99.90;;;;;;5072056;28;20050;-83
2023/03/19 05:04:39;;;;;;;11.52;6.95;;;9.20;99.90;;;;;;5056638;28;20136;-83
2023/03/19 05:07:26;;;;;;;9.82;6.10;;;9.20;99.90;;;;;;5053145;28;20155;-84
2023/03/19 05:10:12;;;;;;;11.80;6.93;;;9.10;99.90;;;;;;5056455;28;20048;-82
2023/03/19 05:12:58;;;;;;;11.60;6.80;;;9.10;99.90;;;;;;5060162;28;20386;-82
2023/03/19 05:15:45;;;;;;;11.15;6.53;;;8.90;99.90;;;;;;5071284;28;20552;-86
2023/03/19 05:18:32;;;;;;;11.00;6.35;;;8.90;99.90;;;;;;5070478;28;20084;-84
2023/03/19 05:21:18;;;;;;;8.93;6.15;;;8.90;99.90;;;;;;5071023;28;20052;-85
2023/03/19 05:24:04;;;;;;;10.43;6.43;;;8.80;99.90;;;;;;5058435;28;20091;-86
2023/03/19 05:26:51;;;;;;;8.63;5.78;;;8.80;99.90;;;;;;5074028;28;20079;-85
2023/03/19 05:29:37;;;;;;;9.23;5.90;;;8.70;99.90;;;;;;5071021;28;20041;-84
2023/03/19 05:32:24;;;;;;;9.63;6.55;;;8.70;99.90;;;;;;5059449;28;20074;-82
2023/03/19 05:35:10;;;;;;;12.25;6.32;;;8.60;99.90;;;;;;5053849;28;20514;-86
2023/03/19 05:37:57;;;;;;;11.15;6.35;;;8.60;99.90;;;;;;5056521;28;20045;-84
2023/03/19 05:40:43;;;;;;;10.80;6.88;;;8.60;99.90;;;;;;5070771;28;20048;-85
2023/03/19 05:43:29;;;;;;;12.75;7.28;;;8.50;99.90;;;;;;5070873;28;20048;-82
2023/03/19 05:46:15;;;;;;;13.10;7.60;;;8.50;99.90;;;;;;5052703;28;20086;-83
2023/03/19 05:49:01;;;;;;;11.48;7.30;;;8.50;99.90;;;;;;5069534;28;20044;-83
2023/03/19 05:51:47;;;;;;;12.20;7.55;;;8.50;99.90;;;;;;5072245;28;20079;-83
2023/03/19 05:54:33;;;;;;;12.55;8.00;;;8.40;99.90;;;;;;5074376;28;20083;-85
2023/03/19 05:57:20;;;;;;;12.35;8.00;;;8.40;99.90;;;;;;5070624;28;20056;-85
2023/03/19 06:00:07;;;;;;;15.35;9.65;;;8.40;99.90;;;;;;5070779;28;20508;-85
2023/03/19 06:02:53;;;;;;;17.10;10.52;;;8.40;99.90;;;;;;5056665;28;20064;-85
2023/03/19 06:05:39;;;;;;;15.18;8.98;;;8.40;99.90;;;;;;5055780;28;20044;-84
2023/03/19 06:08:26;;;;;;;19.98;8.77;;;8.40;99.90;;;;;;5068534;28;20055;-84
2023/03/19 06:11:12;;;;;;;15.77;10.20;;;8.50;99.90;;;;;;5068987;28;20048;-83
2023/03/19 06:13:58;;;;;;;16.80;9.40;;;8.50;99.90;;;;;;5067036;28;20056;-82
2023/03/19 06:16:44;;;;;;;17.27;9.00;;;8.40;99.90;;;;;;5071612;28;20052;-82
2023/03/19 06:19:30;;;;;;;18.75;10.10;;;8.50;99.90;;;;;;5070389;28;20044;-82
2023/03/19 06:22:16;;;;;;;16.95;10.70;;;8.40;99.90;;;;;;5070612;28;20470;-84
2023/03/19 06:25:03;;;;;;;19.95;11.40;;;8.50;99.90;;;;;;5061570;28;20045;-83
2023/03/19 06:27:49;;;;;;;17.85;10.65;;;8.60;99.90;;;;;;5039071;28;20062;-84
2023/03/19 06:30:36;;;;;;;21.08;11.77;;;8.60;99.90;;;;;;5071017;28;20139;-82
2023/03/19 06:33:26;;;;;;;26.20;12.23;;;8.60;99.90;;;;;;5069754;28;20412;-83
2023/03/19 06:36:12;;;;;;;23.65;13.25;;;8.60;99.90;;;;;;5054827;28;20056;-82
2023/03/19 06:38:58;;;;;;;27.40;14.70;;;8.80;99.90;;;;;;5054942;28;20112;-82
2023/03/19 06:41:45;;;;;;;29.98;16.20;;;8.80;99.90;;;;;;5056147;28;20565;-84
2023/03/19 06:44:31;;;;;;;26.67;15.38;;;8.90;99.90;;;;;;5070775;28;20058;-86
2023/03/19 06:47:18;;;;;;;30.15;15.60;;;8.90;99.90;;;;;;5052925;28;20060;-84
2023/03/19 06:50:04;;;;;;;28.73;16.65;;;9.00;99.90;;;;;;5070933;28;20055;-85
2023/03/19 06:52:50;;;;;;;30.52;15.23;;;9.10;99.90;;;;;;5069236;28;20140;-85
2023/03/19 06:55:37;;;;;;;29.23;15.15;;;9.10;99.90;;;;;;5069842;28;20052;-85
2023/03/19 06:58:23;;;;;;;29.38;15.35;;;9.20;99.90;;;;;;5052870;28;20127;-84
2023/03/19 07:01:09;;;;;;;34.28;17.42;;;9.20;99.90;;;;;;5043058;28;20092;-83
2023/03/19 07:03:56;;;;;;;30.27;16.63;;;9.20;99.90;;;;;;5077861;28;20055;-84
2023/03/19 07:06:42;;;;;;;35.70;17.48;;;9.20;99.90;;;;;;5075275;28;20075;-84
2023/03/19 07:09:28;;;;;;;36.53;18.45;;;9.30;99.90;;;;;;5073463;28;20052;-84
2023/03/19 07:12:14;;;;;;;36.33;19.65;;;9.40;99.90;;;;;;5073197;28;20118;-84
2023/03/19 07:15:00;;;;;;;36.60;20.77;;;9.50;99.90;;;;;;5038389;28;20052;-85
2023/03/19 07:17:49;;;;;;;41.50;19.70;;;9.60;99.90;;;;;;5074907;28;20132;-86
2023/03/19 07:20:35;;;;;;;41.97;19.70;;;9.70;99.90;;;;;;5070116;28;20051;-86
2023/03/19 07:23:22;;;;;;;41.33;22.17;;;9.80;99.90;;;;;;5056669;28;20087;-84
2023/03/19 07:26:08;;;;;;;37.35;18.73;;;9.90;99.90;;;;;;5077273;28;20059;-86
2023/03/19 07:28:54;;;;;;;35.25;18.15;;;10.00;99.90;;;;;;5072945;28;20049;-84
2023/03/19 07:31:41;;;;;;;39.53;20.38;;;10.10;99.90;;;;;;5069141;28;20578;-86
2023/03/19 07:34:27;;;;;;;33.65;19.38;;;10.20;99.90;;;;;;5056451;28;20542;-86
2023/03/19 07:37:13;;;;;;;38.13;20.52;;;10.40;99.90;;;;;;5070099;28;20053;-87
2023/03/19 07:39:59;;;;;;;35.55;20.92;;;10.30;99.90;;;;;;5072313;28;20060;-83
2023/03/19 07:42:45;;;;;;;37.22;20.05;;;10.40;99.90;;;;;;5069230;28;20783;-84
2023/03/19 07:45:31;;;;;;;40.63;21.20;;;10.30;99.90;;;;;;5072442;28;20056;-84
2023/03/19 07:48:17;;;;;;;39.70;20.90;;;10.40;99.90;;;;;;5039332;28;20139;-82
2023/03/19 07:51:04;;;;;;;42.50;21.67;;;10.50;99.90;;;;;;5055287;28;20082;-82
2023/03/19 07:53:50;;;;;;;42.22;21.10;;;10.50;99.90;;;;;;5069750;28;20297;-80
2023/03/19 07:56:36;;;;;;;41.92;21.27;;;10.40;99.90;;;;;;5068471;28;20830;-81
2023/03/19 07:59:22;;;;;;;39.28;22.02;;;10.50;99.90;;;;;;5069963;28;20132;-82
2023/03/19 08:02:12;;;;;;;41.90;21.33;;;10.40;99.90;;;;;;5069983;28;20048;-83
2023/03/19 08:05:00;;;;;;;42.85;20.65;;;10.30;99.90;;;;;;5073270;28;20072;-82
2023/03/19 08:07:49;;;;;;;38.80;21.55;;;10.30;99.90;;;;;;5040163;28;20040;-82
2023/03/19 08:10:36;;;;;;;45.95;23.30;;;10.20;99.90;;;;;;5074321;28;20044;-83
2023/03/19 08:13:22;;;;;;;52.35;25.50;;;10.10;99.90;;;;;;5074830;28;20049;-82
2023/03/19 08:16:08;;;;;;;47.90;24.40;;;10.00;99.90;;;;;;5057824;28;20052;-83
2023/03/19 08:18:56;;;;;;;46.95;25.30;;;9.90;99.90;;;;;;5081632;28;20334;-84
2023/03/19 08:21:42;;;;;;;49.95;25.63;;;9.90;99.90;;;;;;5051618;28;20052;-82
2023/03/19 08:24:28;;;;;;;52.10;27.20;;;9.90;99.90;;;;;;5078610;28;20048;-84
2023/03/19 08:27:14;;;;;;;55.90;26.73;;;9.90;99.90;;;;;;5080678;28;20082;-84
2023/03/19 08:30:07;;;;;;;55.47;28.40;;;10.00;99.90;;;;;;5062959;28;20059;-81
2023/03/19 08:32:53;;;;;;;44.67;25.17;;;10.00;99.90;;;;;;5081010;28;20048;-85
2023/03/19 08:35:39;;;;;;;46.28;25.08;;;10.00;99.90;;;;;;5051231;28;20053;-86
2023/03/19 08:38:25;;;;;;;48.17;24.83;;;10.00;99.90;;;;;;5082885;28;20059;-82
2023/03/19 08:41:12;;;;;;;54.65;26.75;;;9.90;99.90;;;;;;5071123;28;20175;-82
2023/03/19 08:43:58;;;;;;;48.67;26.75;;;9.90;99.90;;;;;;5073945;28;20480;-85
2023/03/19 08:46:44;;;;;;;49.10;26.27;;;9.90;99.90;;;;;;5076474;28;20049;-85
2023/03/19 08:49:30;;;;;;;48.97;24.95;;;9.80;99.90;;;;;;5073151;28;20048;-87
2023/03/19 08:52:17;;;;;;;55.95;26.38;;;9.80;99.90;;;;;;5072506;28;20485;-86
2023/03/19 08:55:04;;;;;;;58.60;29.17;;;9.80;99.90;;;;;;5085008;28;20523;-84
2023/03/19 08:57:50;;;;;;;54.60;26.75;;;9.80;99.90;;;;;;5071920;28;20049;-82
2023/03/19 09:00:36;;;;;;;52.60;27.13;;;9.80;99.90;;;;;;5077126;28;20078;-81
2023/03/19 09:03:22;;;;;;;48.50;24.55;;;9.80;99.90;;;;;;5069418;28;20063;-88
2023/03/19 09:06:10;;;;;;;45.97;23.42;;;9.70;99.90;;;;;;5071781;28;20048;-87
2023/03/19 09:08:56;;;;;;;42.67;23.33;;;9.70;99.90;;;;;;5074316;28;20087;-84
2023/03/19 09:11:42;;;;;;;52.45;25.95;;;9.70;99.90;;;;;;5075234;28;20559;-86
2023/03/19 09:14:28;;;;;;;49.85;26.83;;;9.80;99.90;;;;;;5070501;28;20633;-84
2023/03/19 09:17:14;;;;;;;51.50;26.05;;;9.80;99.90;;;;;;5071911;28;20052;-85
2023/03/19 09:20:00;;;;;;;53.38;25.92;;;9.80;99.90;;;;;;5070712;28;20276;-86
2023/03/19 09:22:46;;;;;;;49.42;25.40;;;9.70;99.90;;;;;;5070945;28;20053;-85
2023/03/19 09:25:33;;;;;;;47.83;23.58;;;9.80;99.90;;;;;;5076190;28;20493;-82
2023/03/19 09:28:19;;;;;;;49.28;24.75;;;9.90;99.90;;;;;;5076644;28;20052;-85
2023/03/19 09:31:10;;;;;;;57.08;25.05;;;9.80;99.90;;;;;;5069554;28;20051;-85
2023/03/19 09:33:56;;;;;;;56.83;26.45;;;9.80;99.90;;;;;;5069865;28;20064;-84
2023/03/19 09:36:42;;;;;;;43.17;21.77;;;9.80;99.90;;;;;;5070094;28;20052;-83
2023/03/19 09:39:28;;;;;;;42.20;20.30;;;9.70;99.90;;;;;;5070365;28;20159;-83
2023/03/19 09:42:39;;;;;;;47.25;21.27;;;9.70;99.90;;;;;;5074553;28;20052;-84
2023/03/19 09:45:28;;;;;;;38.53;19.92;;;9.70;99.90;;;;;;5070812;28;20051;-85
2023/03/19 09:48:30;;;;;;;43.92;22.00;;;9.70;99.90;;;;;;5071625;28;20049;-83
2023/03/19 09:51:34;;;;;;;44.30;19.88;;;9.60;99.90;;;;;;5074808;28;20111;-81
2023/03/19 09:54:35;;;;;;;46.47;22.83;;;9.60;99.90;;;;;;5079883;28;20055;-82
2023/03/19 09:57:21;;;;;;;54.75;22.10;;;9.60;99.90;;;;;;5067856;28;20424;-81
2023/03/19 10:00:21;;;;;;;50.05;23.73;;;9.60;99.90;;;;;;5070183;28;20515;-84
2023/03/19 10:03:28;;;;;;;43.70;19.60;;;9.60;99.90;;;;;;5079196;28;20056;-83
2023/03/19 10:06:15;;;;;;;45.45;19.90;;;9.60;99.90;;;;;;5090743;28;20052;-84
2023/03/19 10:09:17;;;;;;;39.33;18.25;;;9.70;99.90;;;;;;5090379;28;20423;-85
2023/03/19 10:12:25;;;;;;;25.58;13.63;;;9.70;99.90;;;;;;5071091;28;20051;-86
2023/03/19 10:15:28;;;;;;;22.33;10.35;;;9.70;99.90;;;;;;5070893;28;20056;-85
2023/03/19 10:18:25;;;;;;;23.08;11.65;;;9.70;99.90;;;;;;5089771;28;20091;-87
2023/03/19 10:21:17;;;;;;;24.10;11.70;;;9.70;99.90;;;;;;5089006;28;20052;-86
2023/03/19 10:24:09;;;;;;;28.88;13.82;;;9.70;99.90;;;;;;5089950;28;20584;-84
2023/03/19 10:27:01;;;;;;;29.42;12.95;;;9.70;99.90;;;;;;5092627;28;20041;-84
2023/03/19 10:29:48;;;;;;;30.58;14.10;;;9.70;99.90;;;;;;5090498;28;20051;-86
2023/03/19 10:32:50;;;;;;;32.15;13.18;;;9.70;99.90;;;;;;5088599;28;20084;-84
2023/03/19 10:35:42;;;;;;;29.05;12.85;;;9.70;99.90;;;;;;5076511;28;20105;-84
2023/03/19 10:38:29;;;;;;;29.40;12.45;;;9.70;99.90;;;;;;5097298;28;20449;-84
2023/03/19 10:41:38;;;;;;;34.13;12.45;;;9.80;99.90;;;;;;5096798;28;20044;-83
2023/03/19 10:44:29;;;;;;;26.88;11.93;;;9.80;99.90;;;;;;5077779;28;20048;-82
2023/03/19 10:47:18;;;;;;;27.65;11.60;;;9.80;99.90;;;;;;5090639;28;20048;-81
2023/03/19 10:50:05;;;;;;;25.60;11.10;;;9.80;99.90;;;;;;5090894;28;20040;-86
2023/03/19 10:53:14;;;;;;;28.73;12.27;;;9.90;99.90;;;;;;5089243;28;20048;-84
2023/03/19 10:56:22;;;;;;;28.02;12.13;;;9.90;99.90;;;;;;5090712;28;20048;-83
2023/03/19 10:59:21;;;;;;;24.35;10.85;;;9.90;99.90;;;;;;5090735;28;20514;-85
2023/03/19 11:02:18;;;;;;;21.58;11.18;;;10.00;99.90;;;;;;5091517;28;20488;-81
2023/03/19 11:05:13;;;;;;;23.35;11.35;;;10.00;99.90;;;;;;5076300;28;20055;-82
2023/03/19 11:08:17;;;;;;;25.73;11.73;;;10.10;99.90;;;;;;5069424;28;20059;-82
2023/03/19 11:11:03;;;;;;;29.13;12.82;;;10.00;99.90;;;;;;5068506;28;20068;-81
2023/03/19 11:13:50;;;;;;;27.05;12.00;;;10.00;99.90;;;;;;5083107;28;20080;-83
2023/03/19 11:16:56;;;;;;;34.83;12.93;;;10.10;99.90;;;;;;5067357;28;20496;-82
2023/03/19 11:19:58;;;;;;;29.70;12.32;;;10.10;99.90;;;;;;5068769;28;20060;-86
2023/03/19 11:22:46;;;;;;;36.13;15.63;;;10.10;99.90;;;;;;5068237;28;20044;-85
2023/03/19 11:25:45;;;;;;;32.15;14.35;;;10.10;99.90;;;;;;5067990;28;20052;-86
2023/03/19 11:28:32;;;;;;;35.83;16.00;;;10.10;99.90;;;;;;5072783;28;20060;-86
2023/03/19 11:31:38;;;;;;;37.00;15.55;;;10.10;99.90;;;;;;5072693;28;20076;-84
2023/03/19 11:34:32;;;;;;;36.00;16.80;;;10.00;99.90;;;;;;5073039;28;20063;-83
2023/03/19 11:37:55;;;;;;;28.48;15.27;;;9.90;99.90;;;;;;5089482;28;20087;-82
2023/03/19 11:40:46;;;;;;;28.20;15.88;;;9.90;99.90;;;;;;5092674;28;20060;-83
2023/03/19 11:43:57;;;;;;;31.50;14.85;;;9.80;99.90;;;;;;5093952;28;20466;-84
2023/03/19 11:46:55;;;;;;;29.25;15.50;;;9.90;99.90;;;;;;5093954;28;20158;-84
2023/03/19 11:49:51;;;;;;;31.00;15.73;;;9.90;99.90;;;;;;5076983;28;20052;-82
2023/03/19 11:53:06;;;;;;;35.20;16.48;;;9.90;99.90;;;;;;5094058;28;20047;-83
2023/03/19 11:56:05;;;;;;;33.17;15.82;;;9.90;99.90;;;;;;5092515;28;20109;-83
2023/03/19 11:59:03;;;;;;;31.58;14.93;;;9.90;99.90;;;;;;5096724;28;20070;-86
2023/03/19 12:02:12;;;;;;;31.55;15.93;;;9.90;99.90;;;;;;5076538;28;20044;-86
2023/03/19 12:05:08;;;;;;;29.02;14.55;;;9.90;99.90;;;;;;5093735;28;20090;-86
2023/03/19 12:08:17;;;;;;;32.78;16.52;;;10.00;99.90;;;;;;5093094;28;20044;-87
2023/03/19 12:11:06;;;;;;;39.30;17.00;;;9.90;99.90;;;;;;5075229;28;20161;-86
2023/03/19 12:13:52;;;;;;;32.28;15.52;;;9.90;99.90;;;;;;5093216;28;20094;-84
2023/03/19 12:17:03;;;;;;;28.70;14.23;;;10.00;99.90;;;;;;5094988;28;20045;-84
2023/03/19 12:20:10;;;;;;;31.15;15.20;;;10.00;99.90;;;;;;5096079;28;20052;-84
2023/03/19 12:23:19;;;;;;;34.78;16.60;;;10.10;99.90;;;;;;5098137;28;20047;-86
2023/03/19 12:26:26;;;;;;;38.63;16.77;;;10.00;99.90;;;;;;5093270;28;20052;-84
2023/03/19 12:29:26;;;;;;;36.85;18.45;;;10.00;99.90;;;;;;5094631;28;20048;-86
2023/03/19 12:32:36;;;;;;;32.67;16.15;;;10.00;99.90;;;;;;5093349;28;20079;-84
2023/03/19 12:35:29;;;;;;;32.95;17.60;;;10.00;99.90;;;;;;5091605;28;20048;-82
2023/03/19 12:38:34;;;;;;;30.35;16.77;;;10.10;99.90;;;;;;5094023;28;20044;-84
2023/03/19 12:41:27;;;;;;;26.00;14.25;;;10.00;99.90;;;;;;5093031;28;20044;-86
2023/03/19 12:44:25;;;;;;;27.60;14.25;;;10.00;99.90;;;;;;5102834;28;20481;-87
2023/03/19 12:47:27;;;;;;;25.58;12.82;;;10.10;99.90;;;;;;5101766;28;20056;-85
2023/03/19 12:50:16;;;;;;;26.27;13.40;;;10.00;99.90;;;;;;5099554;28;20051;-85
2023/03/19 12:53:08;;;;;;;26.38;13.45;;;10.10;99.90;;;;;;5102369;28;20111;-85
2023/03/19 12:56:00;;;;;;;23.50;12.93;;;10.00;99.90;;;;;;5103728;28;20040;-85
2023/03/19 12:58:52;;;;;;;30.13;13.80;;;10.20;99.90;;;;;;5101250;28;20071;-85
2023/03/19 13:01:47;;;;;;;26.83;13.90;;;10.20;99.90;;;;;;5091432;28;20070;-83
2023/03/19 13:04:37;;;;;;;;;;;10.30;99.90;;;;;;5093771;28;20059;-84
2023/03/19 13:07:35;;;;;;;34.67;14.20;;;10.30;99.90;;;;;;5096037;28;19999;-86
2023/03/19 13:10:21;;;;;;;29.00;14.25;;;10.30;99.90;;;;;;5076970;28;20503;-83
2023/03/19 13:13:24;;;;;;;25.05;13.95;;;10.30;99.90;;;;;;5078685;28;20101;-82
2023/03/19 13:16:19;;;;;;;26.50;13.77;;;10.30;99.90;;;;;;5071536;28;20040;-81
2023/03/19 13:19:20;;;;;;;29.27;15.73;;;10.40;99.90;;;;;;5090772;28;20040;-82
2023/03/19 13:22:12;;;;;;;32.85;16.42;;;10.40;99.90;;;;;;5073958;28;20587;-82
2023/03/19 13:25:00;;;;;;;33.10;17.42;;;10.50;99.90;;;;;;5073511;28;20105;-83
2023/03/19 13:27:55;;;;;;;31.73;15.77;;;10.50;99.90;;;;;;5092292;28;20123;-83
2023/03/19 13:30:58;;;;;;;31.20;16.58;;;10.50;99.90;;;;;;5096044;28;20461;-82
2023/03/19 13:34:00;;;;;;;30.67;15.30;;;10.60;99.90;;;;;;5098575;28;20055;-83
2023/03/19 13:37:00;;;;;;;28.05;15.68;;;10.60;99.90;;;;;;5091171;28;20051;-82
2023/03/19 13:39:47;;;;;;;32.78;16.27;;;10.70;99.90;;;;;;5077712;28;20052;-81
2023/03/19 13:42:41;;;;;;;31.38;17.98;;;10.60;99.90;;;;;;5073564;28;20058;-82
2023/03/19 13:45:37;;;;;;;36.22;16.20;;;10.60;99.90;;;;;;5077957;28;20047;-83
2023/03/19 13:48:26;;;;;;;32.60;16.42;;;10.70;99.90;;;;;;5069888;28;20496;-82
2023/03/19 13:51:14;;;;;;;33.05;16.77;;;10.70;99.90;;;;;;5071429;28;20106;-82
2023/03/19 13:54:07;;;;;;;37.50;18.98;;;10.70;99.90;;;;;;5070950;28;20056;-84
2023/03/19 13:57:03;;;;;;;38.92;19.30;;;10.70;99.90;;;;;;5072753;28;20052;-82
2023/03/19 13:59:50;;;;;;;48.30;19.38;;;10.70;99.90;;;;;;5068783;28;20048;-82
2023/03/19 14:02:36;;;;;;;37.70;19.83;;;10.70;99.90;;;;;;5087777;28;20530;-82
2023/03/19 14:05:22;;;;;;;41.90;20.67;;;10.70;99.90;;;;;;5089223;28;20051;-84
2023/03/19 14:08:19;;;;;;;39.88;20.25;;;10.70;99.90;;;;;;5090162;28;20052;-86
2023/03/19 14:11:06;;;;;;;40.22;19.98;;;10.70;99.90;;;;;;5090195;28;20040;-85
2023/03/19 14:13:53;;;;;;;37.75;21.02;;;10.60;99.90;;;;;;5091623;28;20139;-87
2023/03/19 14:16:47;;;;;;;36.97;19.75;;;10.60;99.90;;;;;;5095804;28;20073;-85
2023/03/19 14:19:40;;;;;;;36.53;19.75;;;10.60;99.90;;;;;;5096910;28;20056;-83
2023/03/19 14:23:08;;;;;;;41.40;20.92;;;10.60;99.90;;;;;;5090351;28;20052;-82
2023/03/19 14:26:04;;;;;;;48.45;22.08;;;10.50;99.90;;;;;;5065479;28;20055;-82
2023/03/19 14:29:07;;;;;;;39.95;20.88;;;10.50;99.90;;;;;;5090981;28;20059;-82
2023/03/19 14:31:56;;;;;;;39.13;18.75;;;10.60;99.90;;;;;;5071965;28;20056;-81
2023/03/19 14:34:45;;;;;;;37.72;18.10;;;10.50;99.90;;;;;;5089774;28;20046;-82
2023/03/19 14:37:44;;;;;;;36.78;18.25;;;10.50;99.90;;;;;;5089567;28;20081;-84